MMAS/AGU METAR and TAF weather

Enter ICAO airport designator
Station Type Date Time Source
MMAS METAR 2022/01/29 01:48 UTC NOAA

MMAS 290148Z 06016KT 10SM FEW200 19/03 A3023 RMK 8/002


Station Type Date Time Source
MMAS Decoded METAR 2022/01/29 01:48 UTC NOAA

Aguascalientes, Ags., Mexico (MMAS) 21-53N 102-18W
Jan 28, 2022 - 08:48 PM EST / 2022.01.29 0148 UTC
Wind: from the ENE (060 degrees) at 18 MPH (16 KT):0
Visibility: 10 mile(s):0
Sky conditions: mostly clear
Temperature: 66 F (19 C)
Dew Point: 37 F (3 C)
Relative Humidity: 34%
Pressure (altimeter): 30.23 in. Hg (1023 hPa)
ob: MMAS 290148Z 06016KT 10SM FEW200 19/03 A3023 RMK 8/002
cycle: 2

Station Type Date Time Source
MMAS TAF 2022/01/28 18:55 UTC NOAA

TAF MMAS 281647Z 2818/2918 06008KT P6SM SCT100
BECMG 2902/2903 09005KT SCT030
TEMPO 2910/2914 5SM HZ BKN020
FM291700 24008KT P6SM SKC

Example: see airport list